createdAt,value
2023-05-14T00:02:09.371Z,6.57
2023-05-14T00:04:36.724Z,7.38
2023-05-14T00:07:03.914Z,7.60
2023-05-14T00:09:30.703Z,7.32
2023-05-14T00:11:58.822Z,6.97
2023-05-14T00:14:25.690Z,7.85
2023-05-14T00:16:52.467Z,8.73
2023-05-14T00:19:19.544Z,5.63
2023-05-14T00:21:47.818Z,8.82
2023-05-14T00:24:14.766Z,6.78
2023-05-14T00:26:41.497Z,6.60
2023-05-14T00:29:15.380Z,14.13
2023-05-14T00:31:42.620Z,7.68
2023-05-14T00:34:09.366Z,6.05
2023-05-14T00:36:36.128Z,8.23
2023-05-14T00:39:04.082Z,8.20
2023-05-14T00:41:31.142Z,7.63
2023-05-14T00:43:57.845Z,10.05
2023-05-14T00:46:24.579Z,6.82
2023-05-14T00:48:51.469Z,9.57
2023-05-14T00:51:19.526Z,14.13
2023-05-14T00:53:47.165Z,8.38
2023-05-14T00:56:16.164Z,10.68
2023-05-14T00:58:43.107Z,9.10
2023-05-14T01:01:10.093Z,7.38
2023-05-14T01:03:37.696Z,7.60
2023-05-14T01:06:17.361Z,8.10
2023-05-14T01:08:53.302Z,8.75
2023-05-14T01:11:26.112Z,7.18
2023-05-14T01:14:12.715Z,8.00
2023-05-14T01:16:40.679Z,8.10
2023-05-14T01:19:17.811Z,10.75
2023-05-14T01:21:47.614Z,8.88
2023-05-14T01:24:14.306Z,8.20
2023-05-14T01:26:41.447Z,9.63
2023-05-14T01:29:22.183Z,8.20
2023-05-14T01:31:51.765Z,8.05
2023-05-14T01:34:22.669Z,10.30
2023-05-14T01:36:51.544Z,6.90
2023-05-14T01:39:19.342Z,7.50
2023-05-14T01:41:47.377Z,11.48
2023-05-14T01:44:14.702Z,8.05
2023-05-14T01:46:42.369Z,7.25
2023-05-14T01:49:09.106Z,7.45
2023-05-14T01:51:36.434Z,9.32
2023-05-14T01:54:03.181Z,10.90
2023-05-14T01:56:30.301Z,8.25
2023-05-14T01:58:57.089Z,7.18
2023-05-14T02:01:24.299Z,8.90
2023-05-14T02:03:51.674Z,7.75
2023-05-14T02:06:18.375Z,12.55
2023-05-14T02:08:45.626Z,8.00
2023-05-14T02:11:14.004Z,9.45
2023-05-14T02:13:41.094Z,7.50
2023-05-14T02:16:08.399Z,9.18
2023-05-14T02:18:35.359Z,7.75
2023-05-14T02:21:02.235Z,8.07
2023-05-14T02:23:40.393Z,12.10
2023-05-14T02:26:08.950Z,9.95
2023-05-14T02:28:35.971Z,9.60
2023-05-14T02:31:02.694Z,9.85
2023-05-14T02:33:29.948Z,10.05
2023-05-14T02:35:56.943Z,13.65
2023-05-14T02:38:24.090Z,9.85
2023-05-14T02:40:52.517Z,10.00
2023-05-14T02:43:19.218Z,8.45
2023-05-14T02:45:46.271Z,10.85
2023-05-14T02:48:13.386Z,11.55
2023-05-14T02:50:40.104Z,9.52
2023-05-14T02:53:07.181Z,11.95
2023-05-14T02:55:34.349Z,10.57
2023-05-14T02:58:01.412Z,11.77
2023-05-14T03:00:28.119Z,12.35
2023-05-14T03:02:56.032Z,9.73
2023-05-14T03:05:24.477Z,14.38
2023-05-14T03:07:54.694Z,7.60
2023-05-14T03:10:21.670Z,11.77
2023-05-14T03:12:49.423Z,7.35
2023-05-14T03:15:17.642Z,8.02
2023-05-14T03:17:44.343Z,11.15
2023-05-14T03:20:12.629Z,8.20
2023-05-14T03:22:39.359Z,8.43
2023-05-14T03:25:06.808Z,8.98
2023-05-14T03:27:34.580Z,10.82
2023-05-14T03:30:01.296Z,9.57
2023-05-14T03:32:30.139Z,9.60
2023-05-14T03:34:57.272Z,10.98
2023-05-14T03:37:24.400Z,9.10
2023-05-14T03:39:51.373Z,10.48
2023-05-14T03:42:19.174Z,8.35
2023-05-14T03:44:45.857Z,10.02
2023-05-14T03:47:12.557Z,10.57
2023-05-14T03:49:39.596Z,8.23
2023-05-14T03:52:06.306Z,16.67
2023-05-14T03:54:33.418Z,8.18
2023-05-14T03:57:00.439Z,9.48
2023-05-14T03:59:27.235Z,9.20
2023-05-14T04:01:54.138Z,13.00
2023-05-14T04:04:21.314Z,8.60
2023-05-14T04:06:48.096Z,7.65
2023-05-14T04:09:15.660Z,7.25
2023-05-14T04:11:42.362Z,8.50
2023-05-14T04:14:09.080Z,7.63
2023-05-14T04:16:35.868Z,8.95
2023-05-14T04:19:04.874Z,11.50
2023-05-14T04:21:32.633Z,9.43
2023-05-14T04:23:59.324Z,8.30
2023-05-14T04:26:26.521Z,9.30
2023-05-14T04:28:53.284Z,8.35
2023-05-14T04:31:20.041Z,10.43
2023-05-14T04:33:46.978Z,7.35
2023-05-14T04:36:14.476Z,12.05
2023-05-14T04:38:41.948Z,10.68
2023-05-14T04:41:08.648Z,7.88
2023-05-14T04:43:35.489Z,10.30
2023-05-14T04:46:03.029Z,7.97
2023-05-14T04:48:30.224Z,8.90
2023-05-14T04:50:56.905Z,10.02
2023-05-14T04:53:24.704Z,8.38
2023-05-14T04:55:52.484Z,12.25
2023-05-14T04:58:19.205Z,7.10
2023-05-14T05:00:46.414Z,11.55
2023-05-14T05:03:13.262Z,6.65
2023-05-14T05:05:41.627Z,7.13
2023-05-14T05:08:08.363Z,11.00
2023-05-14T05:10:35.516Z,8.02
2023-05-14T05:13:02.228Z,8.80
2023-05-14T05:15:28.913Z,7.80
2023-05-14T05:17:55.616Z,12.48
2023-05-14T05:20:22.622Z,8.35
2023-05-14T05:22:49.641Z,8.30
2023-05-14T05:25:18.247Z,6.97
2023-05-14T05:27:45.332Z,8.90
2023-05-14T05:30:15.073Z,8.73
2023-05-14T05:32:41.885Z,9.50
2023-05-14T05:35:09.019Z,13.13
2023-05-14T05:37:35.810Z,9.40
2023-05-14T05:40:02.983Z,10.57
2023-05-14T05:42:29.795Z,7.77
2023-05-14T05:44:56.471Z,8.53
2023-05-14T05:47:23.268Z,6.87
2023-05-14T05:49:49.962Z,8.23
2023-05-14T05:52:16.782Z,7.93
2023-05-14T05:54:43.896Z,6.93
2023-05-14T05:57:10.634Z,6.87
2023-05-14T05:59:37.584Z,6.87
2023-05-14T06:02:04.632Z,8.97
2023-05-14T06:04:31.469Z,8.93
2023-05-14T06:06:58.343Z,7.73
2023-05-14T06:09:25.450Z,7.77
2023-05-14T06:11:52.196Z,8.03
2023-05-14T06:14:18.938Z,8.30
2023-05-14T06:16:46.155Z,12.10
2023-05-14T06:19:12.946Z,10.93
2023-05-14T06:21:40.237Z,14.43
2023-05-14T06:24:07.505Z,8.93
2023-05-14T06:26:34.256Z,11.77
2023-05-14T06:29:01.141Z,9.03
2023-05-14T06:31:28.327Z,9.87
2023-05-14T06:33:55.042Z,13.40
2023-05-14T06:36:22.238Z,10.07
2023-05-14T06:38:48.914Z,11.00
2023-05-14T06:41:17.131Z,8.80
2023-05-14T06:43:43.837Z,9.63
2023-05-14T06:46:10.574Z,13.87
2023-05-14T06:48:37.424Z,8.40
2023-05-14T06:51:04.371Z,14.20
2023-05-14T06:53:32.067Z,8.53
2023-05-14T06:55:58.749Z,8.50
2023-05-14T06:58:25.826Z,7.77
2023-05-14T07:00:52.498Z,9.73
2023-05-14T07:03:19.426Z,7.30
2023-05-14T07:05:47.049Z,8.40
2023-05-14T07:08:14.188Z,7.73
2023-05-14T07:10:41.314Z,5.97
2023-05-14T07:13:08.656Z,6.17
2023-05-14T07:15:35.903Z,7.30
2023-05-14T07:18:02.993Z,5.53
2023-05-14T07:20:29.718Z,10.00
2023-05-14T07:22:56.758Z,4.37
2023-05-14T07:25:23.597Z,5.93
2023-05-14T07:27:50.774Z,4.17
2023-05-14T07:30:17.463Z,4.23
2023-05-14T07:32:44.463Z,5.57
2023-05-14T07:35:12.154Z,4.40
2023-05-14T07:37:39.070Z,5.43
2023-05-14T07:40:06.409Z,3.53
2023-05-14T07:42:36.416Z,4.40
2023-05-14T07:45:05.278Z,4.50
2023-05-14T07:47:32.258Z,4.00
2023-05-14T07:50:00.160Z,5.63
2023-05-14T07:52:26.927Z,4.83
2023-05-14T07:54:53.903Z,3.57
2023-05-14T07:57:20.717Z,4.23
2023-05-14T07:59:48.634Z,3.83
2023-05-14T08:02:17.060Z,3.47
2023-05-14T08:04:44.307Z,4.03
2023-05-14T08:07:11.254Z,4.70
2023-05-14T08:09:38.008Z,3.57
2023-05-14T08:12:05.457Z,4.63
2023-05-14T08:14:32.810Z,2.63
2023-05-14T08:16:59.964Z,3.13
2023-05-14T08:19:27.854Z,4.73
2023-05-14T08:21:55.191Z,2.13
2023-05-14T08:24:22.298Z,3.20
2023-05-14T08:26:49.002Z,2.50
2023-05-14T08:29:16.672Z,2.50
2023-05-14T08:31:45.501Z,1.93
2023-05-14T08:34:12.273Z,2.17
2023-05-14T08:36:39.788Z,2.77
2023-05-14T08:39:07.831Z,2.43
2023-05-14T08:41:35.486Z,1.80
2023-05-14T08:44:30.508Z,3.50
2023-05-14T08:46:57.980Z,2.70
2023-05-14T08:49:40.291Z,1.90
2023-05-14T08:52:08.546Z,2.40
2023-05-14T08:54:35.453Z,2.50
2023-05-14T08:57:04.541Z,2.13
2023-05-14T08:59:31.419Z,2.30
2023-05-14T09:02:02.340Z,2.83
2023-05-14T09:04:30.486Z,2.20
2023-05-14T09:06:57.200Z,1.97
2023-05-14T09:09:24.663Z,3.10
2023-05-14T09:11:53.213Z,2.50
2023-05-14T09:14:20.473Z,3.33
2023-05-14T09:16:49.334Z,3.50
2023-05-14T09:19:19.594Z,3.00
2023-05-14T09:21:47.772Z,2.90
2023-05-14T09:24:25.871Z,3.70
2023-05-14T09:26:53.883Z,4.60
2023-05-14T09:29:21.376Z,3.47
2023-05-14T09:31:51.127Z,2.67
2023-05-14T09:34:24.883Z,3.37
2023-05-14T09:36:59.005Z,2.33
2023-05-14T09:39:27.056Z,3.17
2023-05-14T09:41:54.296Z,2.90
2023-05-14T09:44:22.203Z,3.40
2023-05-14T09:46:50.109Z,2.90
2023-05-14T09:49:17.714Z,3.50
2023-05-14T09:51:46.045Z,3.10
2023-05-14T09:54:12.824Z,2.70
2023-05-14T09:56:40.057Z,2.20
2023-05-14T09:59:06.810Z,4.73
2023-05-14T10:01:34.895Z,2.83
2023-05-14T10:04:05.344Z,3.40
2023-05-14T10:06:37.292Z,6.33
2023-05-14T10:09:08.060Z,2.73
2023-05-14T10:11:38.032Z,2.70
2023-05-14T10:14:09.159Z,3.20
2023-05-14T10:16:42.359Z,2.20
2023-05-14T10:19:11.098Z,3.30
2023-05-14T10:21:41.164Z,2.50
2023-05-14T10:24:09.919Z,3.47
2023-05-14T10:26:39.743Z,2.40
2023-05-14T10:29:13.166Z,2.23
2023-05-14T10:31:55.690Z,3.10
2023-05-14T10:34:44.189Z,2.87
2023-05-14T10:37:14.969Z,3.93
2023-05-14T10:39:48.320Z,6.23
2023-05-14T10:42:28.865Z,2.63
2023-05-14T10:44:58.823Z,2.30
2023-05-14T10:47:29.975Z,2.13
2023-05-14T10:49:59.452Z,4.43
2023-05-14T10:52:26.677Z,2.67
2023-05-14T10:54:55.350Z,2.77
2023-05-14T10:57:24.091Z,5.60
2023-05-14T10:59:56.300Z,5.70
2023-05-14T11:02:27.888Z,2.77
2023-05-14T11:05:06.865Z,2.23
2023-05-14T11:07:42.043Z,2.10
2023-05-14T11:10:20.161Z,2.67
2023-05-14T11:12:48.623Z,2.40
2023-05-14T11:15:20.394Z,2.20
2023-05-14T11:17:49.586Z,2.53
2023-05-14T11:20:17.211Z,2.40
2023-05-14T11:22:46.521Z,2.20
2023-05-14T11:25:14.889Z,3.20
2023-05-14T11:27:44.116Z,2.20
2023-05-14T11:30:19.016Z,2.80
2023-05-14T11:32:47.886Z,2.17
2023-05-14T11:35:15.464Z,2.73
2023-05-14T11:37:43.120Z,2.30
2023-05-14T11:40:16.805Z,2.63
2023-05-14T11:42:44.223Z,2.90
2023-05-14T11:45:12.643Z,1.93
2023-05-14T11:47:42.199Z,2.60
2023-05-14T11:50:11.510Z,3.30
2023-05-14T11:52:41.677Z,3.13
2023-05-14T11:55:14.994Z,2.27
2023-05-14T11:57:42.567Z,3.17
2023-05-14T12:00:14.967Z,2.30
2023-05-14T12:02:41.835Z,3.30
2023-05-14T12:05:11.609Z,3.80
2023-05-14T12:07:40.009Z,2.80
2023-05-14T12:10:07.672Z,3.07
2023-05-14T12:12:37.351Z,2.70
2023-05-14T12:15:12.681Z,2.13
2023-05-14T12:17:40.216Z,2.30
2023-05-14T12:20:11.344Z,2.83
2023-05-14T12:22:39.614Z,2.90
2023-05-14T12:25:15.986Z,2.50
2023-05-14T12:27:45.935Z,3.57
2023-05-14T12:32:46.728Z,3.30
2023-05-14T12:35:13.906Z,4.77
2023-05-14T12:37:41.088Z,8.37
2023-05-14T12:40:09.611Z,3.47
2023-05-14T12:42:36.908Z,3.30
2023-05-14T12:45:07.370Z,2.83
2023-05-14T12:47:35.201Z,4.47
2023-05-14T12:50:02.362Z,2.50
2023-05-14T12:54:59.343Z,3.33
2023-05-14T12:57:28.042Z,4.97
2023-05-14T12:59:55.440Z,2.33
2023-05-14T13:02:22.414Z,2.50
2023-05-14T13:04:49.606Z,3.40
2023-05-14T13:07:16.722Z,3.50
2023-05-14T13:09:43.431Z,3.60
2023-05-14T13:12:10.636Z,3.30
2023-05-14T13:14:37.310Z,4.67
2023-05-14T13:17:05.680Z,2.87
2023-05-14T13:19:32.580Z,4.70
2023-05-14T13:21:59.713Z,3.20
2023-05-14T13:24:26.506Z,3.80
2023-05-14T13:26:53.272Z,3.17
2023-05-14T13:29:19.960Z,3.33
2023-05-14T13:31:46.968Z,3.30
2023-05-14T13:34:14.742Z,6.87
2023-05-14T13:36:43.893Z,4.03
2023-05-14T13:39:14.138Z,3.60
2023-05-14T13:41:41.313Z,4.50
2023-05-14T13:44:08.482Z,5.37
2023-05-14T13:46:35.979Z,5.23
2023-05-14T13:49:02.860Z,4.20
2023-05-14T13:51:29.629Z,5.00
2023-05-14T13:53:56.571Z,4.23
2023-05-14T13:56:23.855Z,10.93
2023-05-14T13:58:50.612Z,4.90
2023-05-14T14:01:17.403Z,6.00
2023-05-14T14:03:44.124Z,4.80
2023-05-14T14:06:11.299Z,5.90
2023-05-14T14:08:37.985Z,5.30
2023-05-14T14:11:04.960Z,5.10
2023-05-14T14:13:32.058Z,4.53
2023-05-14T14:15:58.940Z,5.63
2023-05-14T14:18:25.767Z,5.47
2023-05-14T14:20:52.587Z,6.00
2023-05-14T14:23:19.964Z,5.63
2023-05-14T14:25:46.664Z,4.73
2023-05-14T14:28:13.736Z,5.23
2023-05-14T14:30:40.518Z,4.97
2023-05-14T14:33:08.083Z,6.40
2023-05-14T14:35:35.849Z,4.47
2023-05-14T14:38:03.649Z,5.10
2023-05-14T14:40:32.957Z,5.97
2023-05-14T14:43:00.189Z,5.93
2023-05-14T14:45:27.181Z,5.20
2023-05-14T14:48:24.665Z,6.50
2023-05-14T14:50:53.832Z,6.03
2023-05-14T14:53:24.439Z,4.90
2023-05-14T14:55:52.059Z,5.37
2023-05-14T14:58:20.107Z,5.10
2023-05-14T15:00:48.319Z,5.00
2023-05-14T15:03:18.831Z,4.70
2023-05-14T15:08:26.919Z,6.70
2023-05-14T15:10:57.424Z,4.77
2023-05-14T15:13:26.942Z,4.37
2023-05-14T15:15:59.471Z,4.93
2023-05-14T15:18:26.682Z,5.43
2023-05-14T15:20:53.588Z,4.67
2023-05-14T15:23:20.560Z,4.80
2023-05-14T15:25:49.513Z,4.83
2023-05-14T15:30:49.757Z,4.90
2023-05-14T15:38:43.625Z,6.40
2023-05-14T15:43:47.112Z,7.53
2023-05-14T15:48:57.195Z,5.53
2023-05-14T15:51:23.944Z,5.60
2023-05-14T15:53:52.397Z,4.43
2023-05-14T15:56:23.464Z,4.50
2023-05-14T15:58:51.579Z,6.40
2023-05-14T16:01:19.549Z,5.43
2023-05-14T16:03:46.693Z,5.80
2023-05-14T16:09:05.171Z,6.40
2023-05-14T16:14:08.283Z,6.37
2023-05-14T16:19:18.328Z,5.53
2023-05-14T16:21:58.236Z,6.17
2023-05-14T16:24:25.212Z,5.50
2023-05-14T16:26:52.584Z,7.57
2023-05-14T16:29:19.710Z,6.80
2023-05-14T16:31:49.568Z,5.50
2023-05-14T16:50:00.259Z,7.25
2023-05-14T16:52:27.069Z,6.77
2023-05-14T16:54:53.860Z,9.93
2023-05-14T16:57:21.025Z,6.63
2023-05-14T16:59:48.244Z,6.70
2023-05-14T17:02:18.836Z,10.93
2023-05-14T17:04:46.134Z,7.73
2023-05-14T17:07:14.428Z,5.93
2023-05-14T17:09:42.525Z,6.37
2023-05-14T17:12:11.182Z,8.97
2023-05-14T17:14:37.877Z,10.30
2023-05-14T17:17:04.849Z,9.30
2023-05-14T17:19:31.581Z,7.87
2023-05-14T17:21:58.383Z,6.90
2023-05-14T17:24:26.677Z,7.67
2023-05-14T17:26:54.689Z,7.33
2023-05-14T17:29:22.416Z,9.63
2023-05-14T17:34:25.103Z,7.27
2023-05-14T17:36:52.329Z,7.20
2023-05-14T17:41:54.502Z,7.43
2023-05-14T17:44:21.626Z,8.40
2023-05-14T17:46:50.184Z,9.30
2023-05-14T17:49:17.234Z,9.50
2023-05-14T17:51:44.343Z,7.63
2023-05-14T17:54:11.222Z,7.80
2023-05-14T17:56:38.198Z,7.20
2023-05-14T17:59:05.125Z,8.93
2023-05-14T18:01:33.549Z,10.73
2023-05-14T18:04:03.264Z,7.23
2023-05-14T18:06:31.038Z,9.50
2023-05-14T18:08:58.063Z,7.90
2023-05-14T18:11:26.500Z,9.20
2023-05-14T18:13:53.350Z,7.77
2023-05-14T18:16:21.217Z,12.40
2023-05-14T18:26:54.728Z,12.43
2023-05-14T18:29:21.398Z,10.53
2023-05-14T18:31:48.340Z,9.60
2023-05-14T18:34:15.076Z,8.03
2023-05-14T18:36:41.830Z,9.47
2023-05-14T18:39:08.969Z,9.60
2023-05-14T18:41:35.692Z,14.20
2023-05-14T18:44:05.359Z,11.67
2023-05-14T18:46:32.693Z,11.17
2023-05-14T18:48:59.518Z,15.17
2023-05-14T18:51:27.673Z,15.47
2023-05-14T18:53:55.122Z,11.17
2023-05-14T18:56:21.885Z,11.93
2023-05-14T18:58:49.128Z,10.17
2023-05-14T19:01:22.631Z,14.43
2023-05-14T19:03:51.902Z,10.03
2023-05-14T19:06:19.439Z,16.00
2023-05-14T19:08:53.614Z,9.63
2023-05-14T19:11:20.325Z,10.40
2023-05-14T19:13:50.864Z,8.20
2023-05-14T19:16:20.690Z,10.90
2023-05-14T19:18:48.178Z,8.93
2023-05-14T19:21:19.823Z,7.70
2023-05-14T19:23:49.153Z,10.23
2023-05-14T19:26:16.193Z,8.70
2023-05-14T19:28:45.478Z,7.30
2023-05-14T19:31:16.326Z,10.20
2023-05-14T19:33:43.917Z,8.97
2023-05-14T19:36:11.290Z,13.10
2023-05-14T19:38:38.442Z,9.47
2023-05-14T19:41:08.251Z,9.80
2023-05-14T19:43:35.420Z,10.30
2023-05-14T19:46:02.733Z,12.40
2023-05-14T19:48:32.184Z,9.60
2023-05-14T19:50:59.034Z,12.07
2023-05-14T19:53:30.082Z,11.63
2023-05-14T19:56:00.062Z,7.37
2023-05-14T19:58:30.228Z,6.90
2023-05-14T20:01:00.893Z,8.70
2023-05-14T20:03:28.077Z,9.67
2023-05-14T20:05:56.802Z,9.10
2023-05-14T20:08:25.024Z,10.93
2023-05-14T20:10:54.472Z,9.77
2023-05-14T20:13:25.019Z,10.67
2023-05-14T20:15:53.134Z,11.60
2023-05-14T20:18:19.891Z,12.73
2023-05-14T20:20:47.394Z,11.67
2023-05-14T20:23:14.462Z,11.67
2023-05-14T20:25:46.517Z,11.70
2023-05-14T20:28:13.363Z,10.67
2023-05-14T20:30:47.770Z,12.83
2023-05-14T20:33:21.785Z,10.60
2023-05-14T20:35:48.878Z,11.40
2023-05-14T20:38:19.142Z,9.93
2023-05-14T20:40:48.136Z,12.93
2023-05-14T20:43:32.121Z,9.30
2023-05-14T20:46:28.754Z,9.50
2023-05-14T20:48:57.812Z,11.67
2023-05-14T20:51:26.689Z,12.50
2023-05-14T20:53:54.597Z,11.13
2023-05-14T20:56:24.634Z,12.77
2023-05-14T20:58:52.806Z,11.00
2023-05-14T21:01:26.303Z,11.37
2023-05-14T21:03:53.606Z,10.73
2023-05-14T21:06:23.962Z,10.30
2023-05-14T21:08:53.680Z,11.87
2023-05-14T21:11:23.504Z,12.03
2023-05-14T21:13:50.400Z,10.27
2023-05-14T21:16:17.202Z,10.57
2023-05-14T21:18:44.528Z,11.60
2023-05-14T21:21:13.936Z,14.67
2023-05-14T21:23:42.588Z,13.37
2023-05-14T21:26:09.877Z,13.02
2023-05-14T21:28:37.406Z,11.60
2023-05-14T21:31:05.259Z,14.70
2023-05-14T21:33:33.424Z,12.50
2023-05-14T21:36:05.008Z,14.03
2023-05-14T21:38:36.277Z,13.37
2023-05-14T21:41:09.720Z,11.88
2023-05-14T21:43:37.634Z,14.23
2023-05-14T21:46:18.412Z,16.63
2023-05-14T21:48:45.367Z,14.37
2023-05-14T21:51:19.232Z,14.70
2023-05-14T21:53:46.633Z,13.63
2023-05-14T21:56:16.988Z,13.63
2023-05-14T21:58:45.172Z,14.70
2023-05-14T22:01:12.335Z,14.15
2023-05-14T22:03:39.944Z,17.10
2023-05-14T22:06:07.255Z,14.87
2023-05-14T22:08:41.707Z,14.00
2023-05-14T22:11:13.284Z,15.17
2023-05-14T22:13:44.621Z,15.32
2023-05-14T22:16:19.113Z,15.40
2023-05-14T22:18:48.763Z,15.70
2023-05-14T22:21:16.182Z,15.32
2023-05-14T22:23:43.744Z,14.45
2023-05-14T22:26:11.904Z,13.57
2023-05-14T22:28:42.894Z,17.00
2023-05-14T22:31:10.434Z,15.13
2023-05-14T22:33:40.175Z,14.88
2023-05-14T22:36:14.631Z,15.93
2023-05-14T22:38:48.106Z,14.05
2023-05-14T22:41:21.681Z,14.70
2023-05-14T22:43:50.880Z,12.60
2023-05-14T22:46:19.293Z,15.97
2023-05-14T22:48:52.197Z,15.13
2023-05-14T22:51:20.344Z,16.30
2023-05-14T22:53:47.551Z,14.80
2023-05-14T22:56:15.091Z,14.20
2023-05-14T22:58:43.246Z,14.20
2023-05-14T23:01:11.207Z,14.93
2023-05-14T23:03:49.813Z,15.40
2023-05-14T23:06:18.202Z,16.00
2023-05-14T23:08:45.335Z,17.67
2023-05-14T23:11:12.641Z,13.05
2023-05-14T23:13:41.387Z,18.70
2023-05-14T23:16:09.664Z,14.20
2023-05-14T23:18:38.270Z,15.52
2023-05-14T23:21:07.969Z,13.38
2023-05-14T23:23:36.855Z,16.50
2023-05-14T23:26:04.431Z,15.60
2023-05-14T23:28:32.927Z,16.40
2023-05-14T23:31:01.836Z,14.63
2023-05-14T23:33:29.451Z,17.88
2023-05-14T23:35:59.642Z,17.53
2023-05-14T23:38:28.187Z,16.13
2023-05-14T23:40:55.105Z,15.17
2023-05-14T23:43:24.865Z,16.23
2023-05-14T23:45:57.302Z,17.23
2023-05-14T23:48:24.151Z,14.63
2023-05-14T23:50:56.029Z,12.63
2023-05-14T23:53:30.578Z,15.18
2023-05-14T23:56:00.228Z,14.15
2023-05-14T23:58:27.268Z,14.17
